Kennewick — WDF6991 — position and weather

sailwx.info

Track history (hours):
 
Tides and Currents Weather Stations Pressure Air Temp Water Temp Dewpoint Dewpoint Depression Visibility Wind Speed Wind Dir Waves Ship Positions

Kennewick

Owner: WASHINGTON, STATE OF; Department of Transportation, Olympia, WA. More information available from US FCC via Universal Licensing System and Coast Guard Vessel Documentation Center.

Last reported at 2017-Dec-17 20:55 UTC. Time now 2017-Dec-17 21:41 UTC.
Position N 48°09' W 122°40'.

Length 86 m; draft 3.4 m.

Type: Passenger vessel. MMSI: 367479990.

Date/timePositionNaut miles runAvg speedWind from/ knotsBaromVisibWave heightAir tempDewpointWater temp
2017-Dec-17 20:55N 48°09' W 122°40'4 5.2
2017-Dec-17 20:08N 48°07' W 122°45'213.0
2017-Dec-17 19:59N 48°08' W 122°42'2 3.2
2017-Dec-17 19:23N 48°09' W 122°40'4 4.9
2017-Dec-17 18:37N 48°07' W 122°45'4 4.8
2017-Dec-17 17:52N 48°09' W 122°41'4 5.5
2017-Dec-17 17:09N 48°07' W 122°45'1 0.4
2017-Dec-17 14:37N 48°07' W 122°44'1 0.1
2017-Dec-17 05:34N 48°07' W 122°45'110.9
2017-Dec-17 05:26N 48°07' W 122°43'2 4.3
2017-Dec-17 04:52N 48°09' W 122°41'4 4.1
2017-Dec-17 03:54N 48°07' W 122°45'4 1.7
2017-Dec-17 01:38N 48°09' W 122°40'311.6
2017-Dec-17 01:21N 48°07' W 122°44'1 1.0
2017-Dec-17 00:40N 48°07' W 122°45'4 5.0
2017-Dec-16 23:53N 48°09' W 122°40'4 4.4
2017-Dec-16 23:04N 48°07' W 122°45'113.5
2017-Dec-16 22:59N 48°07' W 122°43'3 4.2
2017-Dec-16 22:23N 48°09' W 122°40'1 0.6
2017-Dec-16 20:51N 48°08' W 122°41'1 0.8
2017-Dec-16 19:32N 48°09' W 122°40'3 7.2
2017-Dec-16 19:11N 48°07' W 122°43'1 1.3
2017-Dec-16 18:36N 48°07' W 122°44'3 4.3
2017-Dec-16 17:53N 48°09' W 122°40'3 1.3
2017-Dec-16 15:34N 48°07' W 122°44'3 4.1
2017-Dec-16 14:51N 48°09' W 122°40'0 0.0
2017-Dec-16 04:50N 48°08' W 122°41'1 0.5
2017-Dec-16 03:09N 48°09' W 122°40'211.5
2017-Dec-16 02:59N 48°08' W 122°42'1 0.4
2017-Dec-15 23:54N 48°09' W 122°41'4 6.1
2017-Dec-15 23:17N 48°07' W 122°46'411.4
2017-Dec-15 22:57N 48°09' W 122°41'1 1.0
2017-Dec-15 22:23N 48°08' W 122°42'3 0.4
2017-Dec-15 13:48N 48°07' W 122°46'0 0.0
2017-Dec-15 12:35N 48°07' W 122°46'0 0.0
2017-Dec-15 12:30N 48°07' W 122°46'0 0.0
2017-Dec-14 17:38N 48°07' W 122°46'0 0.0
2017-Dec-14 16:07N 48°07' W 122°46'0 0.0
2017-Dec-14 15:37N 48°07' W 122°46'0 0.0
2017-Dec-14 14:55N 48°07' W 122°46'0 0.0
2017-Dec-14 08:04N 48°07' W 122°46'0 0.0
2017-Dec-14 07:58N 48°07' W 122°46'0 0.0
2017-Dec-14 07:29N 48°07' W 122°46'0 0.0
2017-Dec-14 06:54N 48°07' W 122°46'0 0.0
2017-Dec-13 20:03N 48°07' W 122°46'0 0.0
2017-Dec-13 20:00N 48°07' W 122°46'0 0.0
2017-Dec-13 18:09N 48°07' W 122°46'0 0.0
2017-Dec-13 17:59N 48°07' W 122°46'0 0.0
2017-Dec-13 17:14N 48°07' W 122°46'0 0.0
2017-Dec-13 16:47N 48°07' W 122°46'0 0.0
2017-Dec-13 16:23N 48°07' W 122°46'0 0.0
2017-Dec-13 15:39N 48°07' W 122°46'0 0.0
2017-Dec-13 15:13N 48°07' W 122°46'0 0.0
2017-Dec-13 14:58N 48°07' W 122°46'0 0.0
2017-Dec-13 14:10N 48°07' W 122°46'0 0.0
2017-Dec-13 13:59N 48°07' W 122°46'0 0.0
2017-Dec-13 13:29N 48°07' W 122°46'0 0.0
2017-Dec-13 13:00N 48°07' W 122°46'0 0.0
2017-Dec-13 12:20N 48°07' W 122°46'0 0.0
2017-Dec-13 11:20N 48°07' W 122°46'0 0.0
2017-Dec-13 11:01N 48°07' W 122°46'0 0.0
2017-Dec-13 10:30N 48°07' W 122°46'0 0.0
2017-Dec-13 08:02N 48°07' W 122°46'0 0.0
2017-Dec-13 07:51N 48°07' W 122°46'0 0.0
2017-Dec-13 07:30N 48°07' W 122°46'0 0.0
2017-Dec-13 06:58N 48°07' W 122°46'0 0.0
2017-Dec-13 06:29N 48°07' W 122°46'0 0.0
2017-Dec-13 05:59N 48°07' W 122°46'0 0.0
2017-Dec-13 05:30N 48°07' W 122°46'0 0.0
2017-Dec-13 05:00N 48°07' W 122°46'0 0.0
2017-Dec-13 01:30N 48°07' W 122°46'2 4.0
2017-Dec-13 00:59N 48°07' W 122°43'915.7
2017-Dec-13 00:23N 47°59' W 122°35'615.1
2017-Dec-13 00:00N 47°55' W 122°29'714.0
2017-Dec-12 23:30N 47°49' W 122°24'4 7.1
2017-Dec-12 23:00N 47°46' W 122°26'3 5.5
2017-Dec-12 22:29N 47°44' W 122°29'1 2.8
2017-Dec-12 22:01N 47°43' W 122°29'5 9.3
2017-Dec-12 21:30N 47°38' W 122°29'1 2.9
2017-Dec-12 21:00N 47°37' W 122°31'0 0.4
2017-Dec-12 20:30N 47°37' W 122°31'0 0.1
2017-Dec-12 19:55N 47°37' W 122°31'0 0.0
2017-Dec-12 19:28N 47°37' W 122°31'0 0.0
2017-Dec-12 18:55N 47°37' W 122°31'0 0.0
2017-Dec-12 18:28N 47°37' W 122°31'0 0.0
2017-Dec-12 17:58N 47°37' W 122°31'0 0.0
2017-Dec-12 17:25N 47°37' W 122°31'0 0.0
2017-Dec-12 16:58N 47°37' W 122°31'0 0.0
2017-Dec-12 16:28N 47°37' W 122°31'0 0.0
2017-Dec-12 15:55N 47°37' W 122°31'0 0.0
2017-Dec-12 15:28N 47°37' W 122°31'0 0.0
2017-Dec-12 14:55N 47°37' W 122°31'0 0.0
2017-Dec-12 14:28N 47°37' W 122°31'0 0.0
2017-Dec-12 13:58N 47°37' W 122°31'0 0.0
2017-Dec-12 13:28N 47°37' W 122°31'0 0.0
2017-Dec-12 12:58N 47°37' W 122°31'0 0.0
2017-Dec-12 12:28N 47°37' W 122°31'0 0.0
2017-Dec-12 11:58N 47°37' W 122°31'0 0.0
2017-Dec-12 11:28N 47°37' W 122°31'0 0.0
2017-Dec-12 10:55N 47°37' W 122°31'0 0.0
2017-Dec-12 10:28N 47°37' W 122°31'0 0.0
2017-Dec-12 09:58N 47°37' W 122°31'0 0.0
2017-Dec-12 09:28N 47°37' W 122°31'0 0.0
2017-Dec-12 08:55N 47°37' W 122°31'0 0.0
2017-Dec-12 08:28N 47°37' W 122°31'0 0.0
2017-Dec-12 07:58N 47°37' W 122°31'0 0.0
2017-Dec-12 07:19N 47°37' W 122°31'0 0.0
2017-Dec-12 06:58N 47°37' W 122°31'0 0.0
2017-Dec-12 06:28N 47°37' W 122°31'0 0.0
2017-Dec-12 05:58N 47°37' W 122°31'0 0.0
2017-Dec-12 05:25N 47°37' W 122°31'0 0.0
2017-Dec-12 04:55N 47°37' W 122°31'0 0.0
2017-Dec-12 04:28N 47°37' W 122°31'0 0.0
2017-Dec-12 03:37N 47°37' W 122°31'0 0.0
2017-Dec-12 03:14N 47°37' W 122°31'0 0.0
2017-Dec-12 02:49N 47°37' W 122°31'0 0.0
2017-Dec-12 02:28N 47°37' W 122°31'0 0.0
2017-Dec-12 01:55N 47°37' W 122°31'0 0.0
2017-Dec-12 01:28N 47°37' W 122°31'0 0.0
2017-Dec-12 00:58N 47°37' W 122°31'0 0.0
2017-Dec-12 00:25N 47°37' W 122°31'0 0.0
2017-Dec-11 23:52N 47°37' W 122°31'0 0.0
2017-Dec-11 23:25N 47°37' W 122°31'0 0.0
2017-Dec-11 22:58N 47°37' W 122°31'0 0.0
2017-Dec-11 22:19N 47°37' W 122°31'0 0.0
2017-Dec-11 21:58N 47°37' W 122°31'0 0.0
2017-Dec-11 21:28N 47°37' W 122°31'0 0.0
2017-Dec-11 20:58N 47°37' W 122°31'0 0.0
2017-Dec-11 20:28N 47°37' W 122°31'0 0.0
2017-Dec-11 19:55N 47°37' W 122°31'0 0.0
2017-Dec-11 19:28N 47°37' W 122°31'0 0.0
2017-Dec-11 18:58N 47°37' W 122°31'0 0.0
2017-Dec-11 18:28N 47°37' W 122°31'0 0.0
2017-Dec-11 17:58N 47°37' W 122°31'0 0.0
2017-Dec-11 17:25N 47°37' W 122°31'0 0.0
2017-Dec-11 16:58N 47°37' W 122°31'0 0.0
2017-Dec-11 16:28N 47°37' W 122°31'0 0.0
2017-Dec-11 15:58N 47°37' W 122°31'0 0.0
2017-Dec-11 15:28N 47°37' W 122°31'0 0.0
2017-Dec-11 14:58N 47°37' W 122°31'0 0.0
2017-Dec-11 14:28N 47°37' W 122°31'0 0.0
2017-Dec-11 13:55N 47°37' W 122°31'0 0.0
2017-Dec-11 13:28N 47°37' W 122°31'0 0.0
2017-Dec-11 12:58N 47°37' W 122°31'0 0.0
2017-Dec-11 12:25N 47°37' W 122°31'0 0.0
2017-Dec-11 11:58N 47°37' W 122°31'0 0.0
2017-Dec-11 11:28N 47°37' W 122°31'0 0.0
2017-Dec-11 10:58N 47°37' W 122°31'0 0.0
2017-Dec-11 10:28N 47°37' W 122°31'0 0.0
2017-Dec-11 09:58N 47°37' W 122°31'0 0.0
2017-Dec-11 09:25N 47°37' W 122°31'0 0.0
2017-Dec-11 08:58N 47°37' W 122°31'0 0.0
2017-Dec-11 08:28N 47°37' W 122°31'0 0.0
2017-Dec-11 07:58N 47°37' W 122°31'0 0.0
2017-Dec-11 07:28N 47°37' W 122°31'0 0.0
2017-Dec-11 06:58N 47°37' W 122°31'0 0.0
2017-Dec-11 06:28N 47°37' W 122°31'0 0.0
2017-Dec-11 05:58N 47°37' W 122°31'0 0.0
2017-Dec-11 05:28N 47°37' W 122°31'0 0.0
2017-Dec-11 04:58N 47°37' W 122°31'0 0.0
2017-Dec-11 04:25N 47°37' W 122°31'0 0.0
2017-Dec-11 03:58N 47°37' W 122°31'0 0.0
2017-Dec-11 03:28N 47°37' W 122°31'0 0.0
2017-Dec-11 02:58N 47°37' W 122°31'0 0.0
2017-Dec-11 02:25N 47°37' W 122°31'0 0.0
2017-Dec-11 01:58N 47°37' W 122°31'0 0.0
2017-Dec-11 01:25N 47°37' W 122°31'0 0.0
2017-Dec-11 00:55N 47°37' W 122°31'0 0.0
2017-Dec-11 00:28N 47°37' W 122°31'0 0.0
2017-Dec-10 23:55N 47°37' W 122°31'0 0.0
2017-Dec-10 23:28N 47°37' W 122°31'0 0.0
2017-Dec-10 22:58N 47°37' W 122°31'0 0.0
2017-Dec-10 22:28N 47°37' W 122°31'0 0.0
2017-Dec-10 21:58N 47°37' W 122°31'0 0.0
2017-Dec-10 21:28N 47°37' W 122°31'0 0.0
2017-Dec-10 20:58N 47°37' W 122°31'0 0.0
2017-Dec-10 20:25N 47°37' W 122°31'0 0.0
2017-Dec-10 19:58N 47°37' W 122°31'0 0.0
2017-Dec-10 19:28N 47°37' W 122°31'0 0.0
2017-Dec-10 18:55N 47°37' W 122°31'0 0.0
2017-Dec-10 18:07N 47°37' W 122°31'0 0.0
2017-Dec-10 17:58N 47°37' W 122°31'0 0.0
2017-Dec-10 17:19N 47°37' W 122°31'0 0.0
2017-Dec-10 16:55N 47°37' W 122°31'0 0.0
2017-Dec-10 16:22N 47°37' W 122°31'0 0.0
2017-Dec-10 15:55N 47°37' W 122°31'0 0.0
2017-Dec-10 15:25N 47°37' W 122°31'0 0.0
2017-Dec-10 14:58N 47°37' W 122°31'0 0.0
2017-Dec-10 14:28N 47°37' W 122°31'0 0.0
2017-Dec-10 13:58N 47°37' W 122°31'0 0.0
2017-Dec-10 13:28N 47°37' W 122°31'0 0.0
2017-Dec-10 12:58N 47°37' W 122°31'0 0.0
2017-Dec-10 12:25N 47°37' W 122°31'0 0.0
2017-Dec-10 11:58N 47°37' W 122°31'0 0.1
2017-Dec-10 11:28N 47°37' W 122°31'0 0.1
2017-Dec-10 10:58N 47°37' W 122°31'0 0.0
2017-Dec-10 10:25N 47°37' W 122°31'0 0.0
2017-Dec-10 09:58N 47°37' W 122°31'0 0.0
2017-Dec-10 09:28N 47°37' W 122°31'0 0.0
2017-Dec-10 08:58N 47°37' W 122°31'0 0.0
2017-Dec-10 08:28N 47°37' W 122°31'0 0.0
2017-Dec-10 07:55N 47°37' W 122°31'0 0.0
2017-Dec-10 07:28N 47°37' W 122°31'0 0.0
2017-Dec-10 06:58N 47°37' W 122°31'0 0.0
2017-Dec-10 06:28N 47°37' W 122°31'0 0.0
2017-Dec-10 05:58N 47°37' W 122°31'0 0.0
2017-Dec-10 05:28N 47°37' W 122°31'0 0.0
2017-Dec-10 04:58N 47°37' W 122°31'0 0.0
2017-Dec-10 04:28N 47°37' W 122°31'0 0.0
2017-Dec-10 03:55N 47°37' W 122°31'0 0.0
2017-Dec-10 03:28N 47°37' W 122°31'0 0.0
2017-Dec-10 02:58N 47°37' W 122°31'0 0.0
2017-Dec-10 02:28N 47°37' W 122°31'0 0.0
2017-Dec-10 01:55N 47°37' W 122°31'0 0.0
2017-Dec-10 01:28N 47°37' W 122°31'0 0.0
2017-Dec-10 00:58N 47°37' W 122°31'0 0.0
2017-Dec-10 00:28N 47°37' W 122°31'0 0.0
2017-Dec-09 23:58N 47°37' W 122°31'0 0.0
2017-Dec-09 23:25N 47°37' W 122°31'0 0.0
2017-Dec-09 22:58N 47°37' W 122°31'0 0.0
2017-Dec-09 22:28N 47°37' W 122°31'0 0.0
2017-Dec-09 21:58N 47°37' W 122°31'0 0.0
2017-Dec-09 21:28N 47°37' W 122°31'0 0.0
2017-Dec-09 20:58N 47°37' W 122°31'0 0.0
2017-Dec-09 20:28N 47°37' W 122°31'0 0.0
2017-Dec-09 19:55N 47°37' W 122°31'0 0.0
2017-Dec-09 19:28N 47°37' W 122°31'0 0.0
2017-Dec-09 18:55N 47°37' W 122°31'0 0.0
2017-Dec-09 18:25N 47°37' W 122°31'0 0.0
2017-Dec-09 17:55N 47°37' W 122°31'0 0.0
2017-Dec-09 17:28N 47°37' W 122°31'0 0.0
2017-Dec-09 16:58N 47°37' W 122°31'0 0.0
2017-Dec-09 16:28N 47°37' W 122°31'0 0.0
2017-Dec-09 15:46N 47°37' W 122°31'0 0.0
2017-Dec-09 15:25N 47°37' W 122°31'0 0.0
2017-Dec-09 14:55N 47°37' W 122°31'0 0.0
2017-Dec-09 14:28N 47°37' W 122°31'0 0.0
2017-Dec-09 13:58N 47°37' W 122°31'0 0.0
2017-Dec-09 13:28N 47°37' W 122°31'0 0.0
2017-Dec-09 12:55N 47°37' W 122°31'0 0.0
2017-Dec-09 12:28N 47°37' W 122°31'0 0.0
2017-Dec-09 11:58N 47°37' W 122°31'0 0.0
2017-Dec-09 11:28N 47°37' W 122°31'0 0.0
2017-Dec-09 10:55N 47°37' W 122°31'0 0.0
2017-Dec-09 10:28N 47°37' W 122°31'0 0.0
2017-Dec-09 09:55N 47°37' W 122°31'0 0.0
2017-Dec-09 09:28N 47°37' W 122°31'0 0.0
2017-Dec-09 08:55N 47°37' W 122°31'0 0.0
2017-Dec-09 08:25N 47°37' W 122°31'0 0.0
2017-Dec-09 07:55N 47°37' W 122°31'0 0.0
2017-Dec-09 07:28N 47°37' W 122°31'0 0.0
2017-Dec-09 06:55N 47°37' W 122°31'0 0.0
2017-Dec-09 06:19N 47°37' W 122°31'0 0.0
2017-Dec-09 05:55N 47°37' W 122°31'0 0.0
2017-Dec-09 05:28N 47°37' W 122°31'0 0.0
2017-Dec-09 04:55N 47°37' W 122°31'0 0.0
2017-Dec-09 04:25N 47°37' W 122°31'0 0.0
2017-Dec-09 03:55N 47°37' W 122°31'0 0.0
2017-Dec-09 03:19N 47°37' W 122°31'0 0.0
2017-Dec-09 02:55N 47°37' W 122°31'0 0.0
2017-Dec-09 02:28N 47°37' W 122°31'0 0.0
2017-Dec-09 01:58N 47°37' W 122°31'0 0.0
2017-Dec-09 01:25N 47°37' W 122°31'0 0.0
2017-Dec-09 00:55N 47°37' W 122°31'0 0.0
2017-Dec-09 00:25N 47°37' W 122°31'0 0.0
2017-Dec-08 23:49N 47°37' W 122°31'0 0.0
2017-Dec-08 23:28N 47°37' W 122°31'0 0.0
2017-Dec-08 22:52N 47°37' W 122°31'0 0.0
2017-Dec-08 22:25N 47°37' W 122°31'0 0.0
2017-Dec-08 21:55N 47°37' W 122°31'0 0.0
2017-Dec-08 21:25N 47°37' W 122°31'0 0.0
2017-Dec-08 20:58N 47°37' W 122°31'0 0.0
2017-Dec-08 20:25N 47°37' W 122°31'0 0.0
2017-Dec-08 19:55N 47°37' W 122°31'0 0.0
2017-Dec-08 19:25N 47°37' W 122°31'0 0.0
2017-Dec-08 18:58N 47°37' W 122°31'0 0.0
2017-Dec-08 18:28N 47°37' W 122°31'0 0.0
2017-Dec-08 17:58N 47°37' W 122°31'0 0.0
2017-Dec-08 17:28N 47°37' W 122°31'0 0.0
2017-Dec-08 16:55N 47°37' W 122°31'0 0.0
2017-Dec-08 16:25N 47°37' W 122°31'0 0.0
2017-Dec-08 15:52N 47°37' W 122°31'0 0.0
2017-Dec-08 15:28N 47°37' W 122°31'0 0.0
2017-Dec-08 14:52N 47°37' W 122°31'0 0.0
2017-Dec-08 14:28N 47°37' W 122°31'0 0.0
2017-Dec-08 13:55N 47°37' W 122°31'0 0.0
2017-Dec-08 13:28N 47°37' W 122°31'0 0.0
2017-Dec-08 12:58N 47°37' W 122°31'0 0.0
2017-Dec-08 12:25N 47°37' W 122°31'0 0.0
2017-Dec-08 11:55N 47°37' W 122°31'0 0.0
2017-Dec-08 11:25N 47°37' W 122°31'0 0.0
2017-Dec-08 10:58N 47°37' W 122°31'0 0.0
2017-Dec-08 10:25N 47°37' W 122°31'0 0.0
2017-Dec-08 09:55N 47°37' W 122°31'0 0.0
2017-Dec-08 09:19N 47°37' W 122°31'0 0.0
2017-Dec-08 08:55N 47°37' W 122°31'0 0.0
2017-Dec-08 08:25N 47°37' W 122°31'0 0.0
2017-Dec-08 07:55N 47°37' W 122°31'0 0.0
2017-Dec-08 07:28N 47°37' W 122°31'0 0.0
2017-Dec-08 06:55N 47°37' W 122°31'0 0.0
2017-Dec-08 06:25N 47°37' W 122°31'0 0.0
2017-Dec-08 05:52N 47°37' W 122°31'0 0.0
2017-Dec-08 05:25N 47°37' W 122°31'0 0.0
2017-Dec-08 04:58N 47°37' W 122°31'0 0.0
2017-Dec-08 04:28N 47°37' W 122°31'0 0.0
2017-Dec-08 03:52N 47°37' W 122°31'0 0.0
2017-Dec-08 02:07N 47°37' W 122°31'0 0.0
2017-Dec-08 01:37N 47°37' W 122°31'0 0.0
2017-Dec-08 01:10N 47°37' W 122°31'0 0.0
2017-Dec-08 00:49N 47°37' W 122°31'0 0.0
2017-Dec-08 00:25N 47°37' W 122°31'0 0.0
2017-Dec-07 23:58N 47°37' W 122°31'0 0.0
2017-Dec-07 23:10N 47°37' W 122°31'0 0.0
2017-Dec-07 22:58N 47°37' W 122°31'0 0.0
2017-Dec-07 22:28N 47°37' W 122°31'0 0.0
2017-Dec-07 21:55N 47°37' W 122°31'0 0.0
2017-Dec-07 21:28N 47°37' W 122°31'0 0.0
2017-Dec-07 20:58N 47°37' W 122°31'  
Track history (hours):
 
Tides and Currents Weather Stations Pressure Air Temp Water Temp Dewpoint Dewpoint Depression Visibility Wind Speed Wind Dir Waves Ship Positions

Kennewick

Owner: WASHINGTON, STATE OF; Department of Transportation, Olympia, WA. More information available from US FCC via Universal Licensing System and Coast Guard Vessel Documentation Center.

Last reported at 2017-Dec-17 20:55 UTC. Time now 2017-Dec-17 21:41 UTC.
Position N 48°09' W 122°40'.

Length 86 m; draft 3.4 m.

Type: Passenger vessel. MMSI: 367479990.

Date/timePositionNaut miles runAvg speedWind from/ knotsBaromVisibWave heightAir tempDewpointWater temp
2017-Dec-17 20:55N 48°09' W 122°40'4 5.2
2017-Dec-17 20:08N 48°07' W 122°45'213.0
2017-Dec-17 19:59N 48°08' W 122°42'2 3.2
2017-Dec-17 19:23N 48°09' W 122°40'4 4.9
2017-Dec-17 18:37N 48°07' W 122°45'4 4.8
2017-Dec-17 17:52N 48°09' W 122°41'4 5.5
2017-Dec-17 17:09N 48°07' W 122°45'1 0.4
2017-Dec-17 14:37N 48°07' W 122°44'1 0.1
2017-Dec-17 05:34N 48°07' W 122°45'110.9
2017-Dec-17 05:26N 48°07' W 122°43'2 4.3
2017-Dec-17 04:52N 48°09' W 122°41'4 4.1
2017-Dec-17 03:54N 48°07' W 122°45'4 1.7
2017-Dec-17 01:38N 48°09' W 122°40'311.6
2017-Dec-17 01:21N 48°07' W 122°44'1 1.0
2017-Dec-17 00:40N 48°07' W 122°45'4 5.0
2017-Dec-16 23:53N 48°09' W 122°40'4 4.4
2017-Dec-16 23:04N 48°07' W 122°45'113.5
2017-Dec-16 22:59N 48°07' W 122°43'3 4.2
2017-Dec-16 22:23N 48°09' W 122°40'1 0.6
2017-Dec-16 20:51N 48°08' W 122°41'1 0.8
2017-Dec-16 19:32N 48°09' W 122°40'3 7.2
2017-Dec-16 19:11N 48°07' W 122°43'1 1.3
2017-Dec-16 18:36N 48°07' W 122°44'3 4.3
2017-Dec-16 17:53N 48°09' W 122°40'3 1.3
2017-Dec-16 15:34N 48°07' W 122°44'3 4.1
2017-Dec-16 14:51N 48°09' W 122°40'0 0.0
2017-Dec-16 04:50N 48°08' W 122°41'1 0.5
2017-Dec-16 03:09N 48°09' W 122°40'211.5
2017-Dec-16 02:59N 48°08' W 122°42'1 0.4
2017-Dec-15 23:54N 48°09' W 122°41'4 6.1
2017-Dec-15 23:17N 48°07' W 122°46'411.4
2017-Dec-15 22:57N 48°09' W 122°41'1 1.0
2017-Dec-15 22:23N 48°08' W 122°42'3 0.4
2017-Dec-15 13:48N 48°07' W 122°46'0 0.0
2017-Dec-15 12:35N 48°07' W 122°46'0 0.0
2017-Dec-15 12:30N 48°07' W 122°46'0 0.0
2017-Dec-14 17:38N 48°07' W 122°46'0 0.0
2017-Dec-14 16:07N 48°07' W 122°46'0 0.0
2017-Dec-14 15:37N 48°07' W 122°46'0 0.0
2017-Dec-14 14:55N 48°07' W 122°46'0 0.0
2017-Dec-14 08:04N 48°07' W 122°46'0 0.0
2017-Dec-14 07:58N 48°07' W 122°46'0 0.0
2017-Dec-14 07:29N 48°07' W 122°46'0 0.0
2017-Dec-14 06:54N 48°07' W 122°46'0 0.0
2017-Dec-13 20:03N 48°07' W 122°46'0 0.0
2017-Dec-13 20:00N 48°07' W 122°46'0 0.0
2017-Dec-13 18:09N 48°07' W 122°46'0 0.0
2017-Dec-13 17:59N 48°07' W 122°46'0 0.0
2017-Dec-13 17:14N 48°07' W 122°46'0 0.0
2017-Dec-13 16:47N 48°07' W 122°46'0 0.0
2017-Dec-13 16:23N 48°07' W 122°46'0 0.0
2017-Dec-13 15:39N 48°07' W 122°46'0 0.0
2017-Dec-13 15:13N 48°07' W 122°46'0 0.0
2017-Dec-13 14:58N 48°07' W 122°46'0 0.0
2017-Dec-13 14:10N 48°07' W 122°46'0 0.0
2017-Dec-13 13:59N 48°07' W 122°46'0 0.0
2017-Dec-13 13:29N 48°07' W 122°46'0 0.0
2017-Dec-13 13:00N 48°07' W 122°46'0 0.0
2017-Dec-13 12:20N 48°07' W 122°46'0 0.0
2017-Dec-13 11:20N 48°07' W 122°46'0 0.0
2017-Dec-13 11:01N 48°07' W 122°46'0 0.0
2017-Dec-13 10:30N 48°07' W 122°46'0 0.0
2017-Dec-13 08:02N 48°07' W 122°46'0 0.0
2017-Dec-13 07:51N 48°07' W 122°46'0 0.0
2017-Dec-13 07:30N 48°07' W 122°46'0 0.0
2017-Dec-13 06:58N 48°07' W 122°46'0 0.0
2017-Dec-13 06:29N 48°07' W 122°46'0 0.0
2017-Dec-13 05:59N 48°07' W 122°46'0 0.0
2017-Dec-13 05:30N 48°07' W 122°46'0 0.0
2017-Dec-13 05:00N 48°07' W 122°46'0 0.0
2017-Dec-13 01:30N 48°07' W 122°46'2 4.0
2017-Dec-13 00:59N 48°07' W 122°43'915.7
2017-Dec-13 00:23N 47°59' W 122°35'615.1
2017-Dec-13 00:00N 47°55' W 122°29'714.0
2017-Dec-12 23:30N 47°49' W 122°24'4 7.1
2017-Dec-12 23:00N 47°46' W 122°26'3 5.5
2017-Dec-12 22:29N 47°44' W 122°29'1 2.8
2017-Dec-12 22:01N 47°43' W 122°29'5 9.3
2017-Dec-12 21:30N 47°38' W 122°29'1 2.9
2017-Dec-12 21:00N 47°37' W 122°31'0 0.4
2017-Dec-12 20:30N 47°37' W 122°31'0 0.1
2017-Dec-12 19:55N 47°37' W 122°31'0 0.0
2017-Dec-12 19:28N 47°37' W 122°31'0 0.0
2017-Dec-12 18:55N 47°37' W 122°31'0 0.0
2017-Dec-12 18:28N 47°37' W 122°31'0 0.0
2017-Dec-12 17:58N 47°37' W 122°31'0 0.0
2017-Dec-12 17:25N 47°37' W 122°31'0 0.0
2017-Dec-12 16:58N 47°37' W 122°31'0 0.0
2017-Dec-12 16:28N 47°37' W 122°31'0 0.0
2017-Dec-12 15:55N 47°37' W 122°31'0 0.0
2017-Dec-12 15:28N 47°37' W 122°31'0 0.0
2017-Dec-12 14:55N 47°37' W 122°31'0 0.0
2017-Dec-12 14:28N 47°37' W 122°31'0 0.0
2017-Dec-12 13:58N 47°37' W 122°31'0 0.0
2017-Dec-12 13:28N 47°37' W 122°31'0 0.0
2017-Dec-12 12:58N 47°37' W 122°31'0 0.0
2017-Dec-12 12:28N 47°37' W 122°31'0 0.0
2017-Dec-12 11:58N 47°37' W 122°31'0 0.0
2017-Dec-12 11:28N 47°37' W 122°31'0 0.0
2017-Dec-12 10:55N 47°37' W 122°31'0 0.0
2017-Dec-12 10:28N 47°37' W 122°31'0 0.0
2017-Dec-12 09:58N 47°37' W 122°31'0 0.0
2017-Dec-12 09:28N 47°37' W 122°31'0 0.0
2017-Dec-12 08:55N 47°37' W 122°31'0 0.0
2017-Dec-12 08:28N 47°37' W 122°31'0 0.0
2017-Dec-12 07:58N 47°37' W 122°31'0 0.0
2017-Dec-12 07:19N 47°37' W 122°31'0 0.0
2017-Dec-12 06:58N 47°37' W 122°31'0 0.0
2017-Dec-12 06:28N 47°37' W 122°31'0 0.0
2017-Dec-12 05:58N 47°37' W 122°31'0 0.0
2017-Dec-12 05:25N 47°37' W 122°31'0 0.0
2017-Dec-12 04:55N 47°37' W 122°31'0 0.0
2017-Dec-12 04:28N 47°37' W 122°31'0 0.0
2017-Dec-12 03:37N 47°37' W 122°31'0 0.0
2017-Dec-12 03:14N 47°37' W 122°31'0 0.0
2017-Dec-12 02:49N 47°37' W 122°31'0 0.0
2017-Dec-12 02:28N 47°37' W 122°31'0 0.0
2017-Dec-12 01:55N 47°37' W 122°31'0 0.0
2017-Dec-12 01:28N 47°37' W 122°31'0 0.0
2017-Dec-12 00:58N 47°37' W 122°31'0 0.0
2017-Dec-12 00:25N 47°37' W 122°31'0 0.0
2017-Dec-11 23:52N 47°37' W 122°31'0 0.0
2017-Dec-11 23:25N 47°37' W 122°31'0 0.0
2017-Dec-11 22:58N 47°37' W 122°31'0 0.0
2017-Dec-11 22:19N 47°37' W 122°31'0 0.0
2017-Dec-11 21:58N 47°37' W 122°31'0 0.0
2017-Dec-11 21:28N 47°37' W 122°31'0 0.0
2017-Dec-11 20:58N 47°37' W 122°31'0 0.0
2017-Dec-11 20:28N 47°37' W 122°31'0 0.0
2017-Dec-11 19:55N 47°37' W 122°31'0 0.0
2017-Dec-11 19:28N 47°37' W 122°31'0 0.0
2017-Dec-11 18:58N 47°37' W 122°31'0 0.0
2017-Dec-11 18:28N 47°37' W 122°31'0 0.0
2017-Dec-11 17:58N 47°37' W 122°31'0 0.0
2017-Dec-11 17:25N 47°37' W 122°31'0 0.0
2017-Dec-11 16:58N 47°37' W 122°31'0 0.0
2017-Dec-11 16:28N 47°37' W 122°31'0 0.0
2017-Dec-11 15:58N 47°37' W 122°31'0 0.0
2017-Dec-11 15:28N 47°37' W 122°31'0 0.0
2017-Dec-11 14:58N 47°37' W 122°31'0 0.0
2017-Dec-11 14:28N 47°37' W 122°31'0 0.0
2017-Dec-11 13:55N 47°37' W 122°31'0 0.0
2017-Dec-11 13:28N 47°37' W 122°31'0 0.0
2017-Dec-11 12:58N 47°37' W 122°31'0 0.0
2017-Dec-11 12:25N 47°37' W 122°31'0 0.0
2017-Dec-11 11:58N 47°37' W 122°31'0 0.0
2017-Dec-11 11:28N 47°37' W 122°31'0 0.0
2017-Dec-11 10:58N 47°37' W 122°31'0 0.0
2017-Dec-11 10:28N 47°37' W 122°31'0 0.0
2017-Dec-11 09:58N 47°37' W 122°31'0 0.0
2017-Dec-11 09:25N 47°37' W 122°31'0 0.0
2017-Dec-11 08:58N 47°37' W 122°31'0 0.0
2017-Dec-11 08:28N 47°37' W 122°31'0 0.0
2017-Dec-11 07:58N 47°37' W 122°31'0 0.0
2017-Dec-11 07:28N 47°37' W 122°31'0 0.0
2017-Dec-11 06:58N 47°37' W 122°31'0 0.0
2017-Dec-11 06:28N 47°37' W 122°31'0 0.0
2017-Dec-11 05:58N 47°37' W 122°31'0 0.0
2017-Dec-11 05:28N 47°37' W 122°31'0 0.0
2017-Dec-11 04:58N 47°37' W 122°31'0 0.0
2017-Dec-11 04:25N 47°37' W 122°31'0 0.0
2017-Dec-11 03:58N 47°37' W 122°31'0 0.0
2017-Dec-11 03:28N 47°37' W 122°31'0 0.0
2017-Dec-11 02:58N 47°37' W 122°31'0 0.0
2017-Dec-11 02:25N 47°37' W 122°31'0 0.0
2017-Dec-11 01:58N 47°37' W 122°31'0 0.0
2017-Dec-11 01:25N 47°37' W 122°31'0 0.0
2017-Dec-11 00:55N 47°37' W 122°31'0 0.0
2017-Dec-11 00:28N 47°37' W 122°31'0 0.0
2017-Dec-10 23:55N 47°37' W 122°31'0 0.0
2017-Dec-10 23:28N 47°37' W 122°31'0 0.0
2017-Dec-10 22:58N 47°37' W 122°31'0 0.0
2017-Dec-10 22:28N 47°37' W 122°31'0 0.0
2017-Dec-10 21:58N 47°37' W 122°31'0 0.0
2017-Dec-10 21:28N 47°37' W 122°31'0 0.0
2017-Dec-10 20:58N 47°37' W 122°31'0 0.0
2017-Dec-10 20:25N 47°37' W 122°31'0 0.0
2017-Dec-10 19:58N 47°37' W 122°31'0 0.0
2017-Dec-10 19:28N 47°37' W 122°31'0 0.0
2017-Dec-10 18:55N 47°37' W 122°31'0 0.0
2017-Dec-10 18:07N 47°37' W 122°31'0 0.0
2017-Dec-10 17:58N 47°37' W 122°31'0 0.0
2017-Dec-10 17:19N 47°37' W 122°31'0 0.0
2017-Dec-10 16:55N 47°37' W 122°31'0 0.0
2017-Dec-10 16:22N 47°37' W 122°31'0 0.0
2017-Dec-10 15:55N 47°37' W 122°31'0 0.0
2017-Dec-10 15:25N 47°37' W 122°31'0 0.0
2017-Dec-10 14:58N 47°37' W 122°31'0 0.0
2017-Dec-10 14:28N 47°37' W 122°31'0 0.0
2017-Dec-10 13:58N 47°37' W 122°31'0 0.0
2017-Dec-10 13:28N 47°37' W 122°31'0 0.0
2017-Dec-10 12:58N 47°37' W 122°31'0 0.0
2017-Dec-10 12:25N 47°37' W 122°31'0 0.0
2017-Dec-10 11:58N 47°37' W 122°31'0 0.1
2017-Dec-10 11:28N 47°37' W 122°31'0 0.1
2017-Dec-10 10:58N 47°37' W 122°31'0 0.0
2017-Dec-10 10:25N 47°37' W 122°31'0 0.0
2017-Dec-10 09:58N 47°37' W 122°31'0 0.0
2017-Dec-10 09:28N 47°37' W 122°31'0 0.0
2017-Dec-10 08:58N 47°37' W 122°31'0 0.0
2017-Dec-10 08:28N 47°37' W 122°31'0 0.0
2017-Dec-10 07:55N 47°37' W 122°31'0 0.0
2017-Dec-10 07:28N 47°37' W 122°31'0 0.0
2017-Dec-10 06:58N 47°37' W 122°31'0 0.0
2017-Dec-10 06:28N 47°37' W 122°31'0 0.0
2017-Dec-10 05:58N 47°37' W 122°31'0 0.0
2017-Dec-10 05:28N 47°37' W 122°31'0 0.0
2017-Dec-10 04:58N 47°37' W 122°31'0 0.0
2017-Dec-10 04:28N 47°37' W 122°31'0 0.0
2017-Dec-10 03:55N 47°37' W 122°31'0 0.0
2017-Dec-10 03:28N 47°37' W 122°31'0 0.0
2017-Dec-10 02:58N 47°37' W 122°31'0 0.0
2017-Dec-10 02:28N 47°37' W 122°31'0 0.0
2017-Dec-10 01:55N 47°37' W 122°31'0 0.0
2017-Dec-10 01:28N 47°37' W 122°31'0 0.0
2017-Dec-10 00:58N 47°37' W 122°31'0 0.0
2017-Dec-10 00:28N 47°37' W 122°31'0 0.0
2017-Dec-09 23:58N 47°37' W 122°31'0 0.0
2017-Dec-09 23:25N 47°37' W 122°31'0 0.0
2017-Dec-09 22:58N 47°37' W 122°31'0 0.0
2017-Dec-09 22:28N 47°37' W 122°31'0 0.0
2017-Dec-09 21:58N 47°37' W 122°31'0 0.0
2017-Dec-09 21:28N 47°37' W 122°31'0 0.0
2017-Dec-09 20:58N 47°37' W 122°31'0 0.0
2017-Dec-09 20:28N 47°37' W 122°31'0 0.0
2017-Dec-09 19:55N 47°37' W 122°31'0 0.0
2017-Dec-09 19:28N 47°37' W 122°31'0 0.0
2017-Dec-09 18:55N 47°37' W 122°31'0 0.0
2017-Dec-09 18:25N 47°37' W 122°31'0 0.0
2017-Dec-09 17:55N 47°37' W 122°31'0 0.0
2017-Dec-09 17:28N 47°37' W 122°31'0 0.0
2017-Dec-09 16:58N 47°37' W 122°31'0 0.0
2017-Dec-09 16:28N 47°37' W 122°31'0 0.0
2017-Dec-09 15:46N 47°37' W 122°31'0 0.0
2017-Dec-09 15:25N 47°37' W 122°31'0 0.0
2017-Dec-09 14:55N 47°37' W 122°31'0 0.0
2017-Dec-09 14:28N 47°37' W 122°31'0 0.0
2017-Dec-09 13:58N 47°37' W 122°31'0 0.0
2017-Dec-09 13:28N 47°37' W 122°31'0 0.0
2017-Dec-09 12:55N 47°37' W 122°31'0 0.0
2017-Dec-09 12:28N 47°37' W 122°31'0 0.0
2017-Dec-09 11:58N 47°37' W 122°31'0 0.0
2017-Dec-09 11:28N 47°37' W 122°31'0 0.0
2017-Dec-09 10:55N 47°37' W 122°31'0 0.0
2017-Dec-09 10:28N 47°37' W 122°31'0 0.0
2017-Dec-09 09:55N 47°37' W 122°31'0 0.0
2017-Dec-09 09:28N 47°37' W 122°31'0 0.0
2017-Dec-09 08:55N 47°37' W 122°31'0 0.0
2017-Dec-09 08:25N 47°37' W 122°31'0 0.0
2017-Dec-09 07:55N 47°37' W 122°31'0 0.0
2017-Dec-09 07:28N 47°37' W 122°31'0 0.0
2017-Dec-09 06:55N 47°37' W 122°31'0 0.0
2017-Dec-09 06:19N 47°37' W 122°31'0 0.0
2017-Dec-09 05:55N 47°37' W 122°31'0 0.0
2017-Dec-09 05:28N 47°37' W 122°31'0 0.0
2017-Dec-09 04:55N 47°37' W 122°31'0 0.0
2017-Dec-09 04:25N 47°37' W 122°31'0 0.0
2017-Dec-09 03:55N 47°37' W 122°31'0 0.0
2017-Dec-09 03:19N 47°37' W 122°31'0 0.0
2017-Dec-09 02:55N 47°37' W 122°31'0 0.0
2017-Dec-09 02:28N 47°37' W 122°31'0 0.0
2017-Dec-09 01:58N 47°37' W 122°31'0 0.0
2017-Dec-09 01:25N 47°37' W 122°31'0 0.0
2017-Dec-09 00:55N 47°37' W 122°31'0 0.0
2017-Dec-09 00:25N 47°37' W 122°31'0 0.0
2017-Dec-08 23:49N 47°37' W 122°31'0 0.0
2017-Dec-08 23:28N 47°37' W 122°31'0 0.0
2017-Dec-08 22:52N 47°37' W 122°31'0 0.0
2017-Dec-08 22:25N 47°37' W 122°31'0 0.0
2017-Dec-08 21:55N 47°37' W 122°31'0 0.0
2017-Dec-08 21:25N 47°37' W 122°31'0 0.0
2017-Dec-08 20:58N 47°37' W 122°31'0 0.0
2017-Dec-08 20:25N 47°37' W 122°31'0 0.0
2017-Dec-08 19:55N 47°37' W 122°31'0 0.0
2017-Dec-08 19:25N 47°37' W 122°31'0 0.0
2017-Dec-08 18:58N 47°37' W 122°31'0 0.0
2017-Dec-08 18:28N 47°37' W 122°31'0 0.0
2017-Dec-08 17:58N 47°37' W 122°31'0 0.0
2017-Dec-08 17:28N 47°37' W 122°31'0 0.0
2017-Dec-08 16:55N 47°37' W 122°31'0 0.0
2017-Dec-08 16:25N 47°37' W 122°31'0 0.0
2017-Dec-08 15:52N 47°37' W 122°31'0 0.0
2017-Dec-08 15:28N 47°37' W 122°31'0 0.0
2017-Dec-08 14:52N 47°37' W 122°31'0 0.0
2017-Dec-08 14:28N 47°37' W 122°31'0 0.0
2017-Dec-08 13:55N 47°37' W 122°31'0 0.0
2017-Dec-08 13:28N 47°37' W 122°31'0 0.0
2017-Dec-08 12:58N 47°37' W 122°31'0 0.0
2017-Dec-08 12:25N 47°37' W 122°31'0 0.0
2017-Dec-08 11:55N 47°37' W 122°31'0 0.0
2017-Dec-08 11:25N 47°37' W 122°31'0 0.0
2017-Dec-08 10:58N 47°37' W 122°31'0 0.0
2017-Dec-08 10:25N 47°37' W 122°31'0 0.0
2017-Dec-08 09:55N 47°37' W 122°31'0 0.0
2017-Dec-08 09:19N 47°37' W 122°31'0 0.0
2017-Dec-08 08:55N 47°37' W 122°31'0 0.0
2017-Dec-08 08:25N 47°37' W 122°31'0 0.0
2017-Dec-08 07:55N 47°37' W 122°31'0 0.0
2017-Dec-08 07:28N 47°37' W 122°31'0 0.0
2017-Dec-08 06:55N 47°37' W 122°31'0 0.0
2017-Dec-08 06:25N 47°37' W 122°31'0 0.0
2017-Dec-08 05:52N 47°37' W 122°31'0 0.0
2017-Dec-08 05:25N 47°37' W 122°31'0 0.0
2017-Dec-08 04:58N 47°37' W 122°31'0 0.0
2017-Dec-08 04:28N 47°37' W 122°31'0 0.0
2017-Dec-08 03:52N 47°37' W 122°31'0 0.0
2017-Dec-08 02:07N 47°37' W 122°31'0 0.0
2017-Dec-08 01:37N 47°37' W 122°31'0 0.0
2017-Dec-08 01:10N 47°37' W 122°31'0 0.0
2017-Dec-08 00:49N 47°37' W 122°31'0 0.0
2017-Dec-08 00:25N 47°37' W 122°31'0 0.0
2017-Dec-07 23:58N 47°37' W 122°31'0 0.0
2017-Dec-07 23:10N 47°37' W 122°31'0 0.0
2017-Dec-07 22:58N 47°37' W 122°31'0 0.0
2017-Dec-07 22:28N 47°37' W 122°31'0 0.0
2017-Dec-07 21:55N 47°37' W 122°31'0 0.0
2017-Dec-07 21:28N 47°37' W 122°31'0 0.0
2017-Dec-07 20:58N 47°37' W 122°31'  

Dump ship's entire track history